Time;durP1;ratioP1;P1;durP2;ratioP2;P2;SDS_P1;SDS_P2;PMS_P1;PMS_P2;Temp;Humidity;BMP_temperature;BMP_pressure;BME280_temperature;BME280_humidity;BME280_pressure;Samples;Min_cycle;Max_cycle;Signal;HPM_P1;HPM_P2
2023/03/21 00:01:36;;;;;;;;;15.00;12.33;;;;;15.74;100.00;101289.38;5080836;28;47311;-77
2023/03/21 00:04:02;;;;;;;;;17.00;16.33;;;;;15.68;100.00;101287.50;5081462;27;45357;-77
2023/03/21 00:06:28;;;;;;;;;11.00;11.00;;;;;15.72;100.00;101294.97;5080924;28;45401;-77
2023/03/21 00:08:53;;;;;;;;;18.00;16.67;;;;;15.78;100.00;101293.34;5081679;27;45279;-76
2023/03/21 00:11:18;;;;;;;;;13.67;12.67;;;;;15.76;100.00;101279.28;5081620;28;46035;-77
2023/03/21 00:13:43;;;;;;;;;15.67;13.67;;;;;15.70;100.00;101280.91;5080042;28;55266;-77
2023/03/21 00:16:15;;;;;;;;;15.33;14.67;;;;;15.77;100.00;101287.13;5097712;27;45652;-77
2023/03/21 00:18:47;;;;;;;;;12.67;11.67;;;;;15.80;100.00;101285.91;5080011;28;46256;-77
2023/03/21 00:21:18;;;;;;;;;13.00;13.00;;;;;15.71;100.00;101282.56;5081194;28;45392;-77
2023/03/21 00:23:45;;;;;;;;;17.00;13.67;;;;;15.69;100.00;101281.09;5081842;27;45467;-77
2023/03/21 00:26:11;;;;;;;;;13.33;12.33;;;;;15.64;100.00;101270.97;5081298;27;45408;-77
2023/03/21 00:28:37;;;;;;;;;14.00;14.00;;;;;15.63;100.00;101262.09;5080033;28;45593;-77
2023/03/21 00:31:03;;;;;;;;;17.33;14.67;;;;;15.74;100.00;101266.09;5067731;27;45362;-76
2023/03/21 00:33:28;;;;;;;;;13.67;13.67;;;;;15.72;100.00;101262.81;5080261;28;45267;-76
2023/03/21 00:35:54;;;;;;;;;10.67;10.67;;;;;15.66;100.00;101252.84;5081388;27;45509;-76
2023/03/21 00:38:21;;;;;;;;;13.00;11.67;;;;;15.73;100.00;101275.16;5081678;28;45169;-76
2023/03/21 00:40:47;;;;;;;;;12.33;12.33;;;;;15.67;100.00;101259.03;5079944;28;48201;-77
2023/03/21 00:43:16;;;;;;;;;10.33;10.33;;;;;15.65;100.00;101262.75;5081573;27;45456;-76
2023/03/21 00:45:42;;;;;;;;;12.67;12.67;;;;;15.62;100.00;101260.44;5077513;28;45394;-77
2023/03/21 00:48:08;;;;;;;;;10.00;10.00;;;;;15.58;100.00;101266.38;5070289;28;45718;-76
2023/03/21 00:50:33;;;;;;;;;13.67;12.67;;;;;15.48;100.00;101251.47;5080586;28;45347;-78
2023/03/21 00:52:59;;;;;;;;;12.67;12.00;;;;;15.42;100.00;101246.91;5081226;27;50186;-78
2023/03/21 00:55:25;;;;;;;;;12.67;12.33;;;;;15.45;100.00;101251.06;5081086;27;45378;-78
2023/03/21 00:57:50;;;;;;;;;13.67;11.67;;;;;15.41;100.00;101258.63;5081415;27;45274;-77
2023/03/21 01:00:16;;;;;;;;;14.00;13.67;;;;;15.36;100.00;101259.22;5079543;28;47134;-77
2023/03/21 01:02:55;;;;;;;;;14.00;12.67;;;;;15.38;100.00;101259.03;5079745;28;45301;-77
2023/03/21 01:08:15;;;;;;;;;11.00;11.00;;;;;15.26;100.00;101253.34;5080825;28;45322;-77
2023/03/21 01:10:43;;;;;;;;;11.33;10.67;;;;;15.19;100.00;101239.09;5080705;27;47408;-77
2023/03/21 01:13:10;;;;;;;;;13.00;12.00;;;;;15.14;100.00;101237.00;5079167;28;45674;-78
2023/03/21 01:15:41;;;;;;;;;12.00;11.67;;;;;15.13;100.00;101246.06;5079933;28;45363;-77
2023/03/21 01:18:06;;;;;;;;;11.33;9.67;;;;;15.12;100.00;101247.09;5080224;27;45481;-77
2023/03/21 01:20:32;;;;;;;;;13.00;11.67;;;;;15.07;100.00;101247.66;5080819;27;46133;-77
2023/03/21 01:22:57;;;;;;;;;10.00;9.00;;;;;15.10;100.00;101241.06;5080562;27;45629;-77
2023/03/21 01:25:22;;;;;;;;;12.00;10.00;;;;;15.02;100.00;101229.50;5079211;28;46687;-77
2023/03/21 01:27:47;;;;;;;;;11.67;11.00;;;;;15.03;100.00;101233.00;5080441;27;45556;-77
2023/03/21 01:30:13;;;;;;;;;14.00;12.33;;;;;15.01;100.00;101240.38;5080371;27;45304;-77
2023/03/21 01:32:38;;;;;;;;;10.00;10.00;;;;;14.96;100.00;101232.94;5080688;27;45272;-77
2023/03/21 01:35:04;;;;;;;;;9.00;9.00;;;;;14.94;100.00;101228.78;5080696;27;46771;-77
2023/03/21 01:37:31;;;;;;;;;12.00;11.00;;;;;14.96;100.00;101230.25;5080515;27;45429;-77
2023/03/21 01:39:56;;;;;;;;;12.33;9.00;;;;;14.95;100.00;101227.75;5080439;28;46144;-77
2023/03/21 01:42:22;;;;;;;;;10.33;9.33;;;;;14.87;100.00;101220.69;5064707;28;45685;-76
2023/03/21 01:45:05;;;;;;;;;10.00;10.00;;;;;14.81;100.00;101218.81;5079444;28;45494;-77
2023/03/21 01:47:31;;;;;;;;;9.67;9.67;;;;;14.77;100.00;101212.97;5078946;28;46029;-77
2023/03/21 01:50:02;;;;;;;;;6.33;6.33;;;;;14.76;100.00;101208.63;5079025;28;47202;-76
2023/03/21 01:52:37;;;;;;;;;10.00;10.00;;;;;14.71;100.00;101198.50;5080235;27;45310;-77
2023/03/21 01:55:05;;;;;;;;;6.67;6.67;;;;;14.79;100.00;101204.78;5080038;27;45333;-77
2023/03/21 01:57:38;;;;;;;;;11.00;10.67;;;;;14.72;100.00;101210.84;5078460;28;48131;-77
2023/03/21 02:00:11;;;;;;;;;8.33;8.33;;;;;14.67;100.00;101210.59;5078394;28;48602;-77
2023/03/21 02:02:49;;;;;;;;;10.67;9.00;;;;;14.61;100.00;101214.03;5080196;27;45369;-77
2023/03/21 02:05:20;;;;;;;;;9.00;9.00;;;;;14.58;100.00;101209.88;5078588;27;45390;-77
2023/03/21 02:07:47;;;;;;;;;8.67;8.67;;;;;14.59;100.00;101216.91;5080108;27;45636;-77
2023/03/21 02:10:15;;;;;;;;;7.67;6.33;;;;;14.45;100.00;101205.22;5079662;28;46435;-77
2023/03/21 02:12:40;;;;;;;;;8.00;7.00;;;;;14.42;100.00;101210.94;5078600;27;45291;-78
2023/03/21 02:15:07;;;;;;;;;9.00;8.00;;;;;14.36;100.00;101195.66;5078578;28;45536;-77
2023/03/21 02:17:39;;;;;;;;;6.33;6.33;;;;;14.35;100.00;101202.03;5080040;27;45337;-77
2023/03/21 02:20:26;;;;;;;;;8.00;8.00;;;;;14.30;100.00;101199.91;5079698;28;46187;-77
2023/03/21 02:23:33;;;;;;;;;8.00;7.33;;;;;14.23;100.00;101191.81;5079854;27;45410;-77
2023/03/21 02:26:26;;;;;;;;;7.00;7.00;;;;;14.27;100.00;101192.25;5079248;28;45384;-77
2023/03/21 02:29:01;;;;;;;;;8.00;8.00;;;;;14.04;100.00;101166.50;5072260;28;46181;-77
2023/03/21 02:31:41;;;;;;;;;7.00;7.00;;;;;14.04;100.00;101177.22;5078009;28;48453;-77
2023/03/21 02:34:34;;;;;;;;;7.33;7.33;;;;;14.09;100.00;101181.97;5079743;27;45274;-77
2023/03/21 02:37:06;;;;;;;;;7.67;7.33;;;;;14.15;100.00;101178.56;5079802;27;45468;-77
2023/03/21 02:39:54;;;;;;;;;8.33;7.00;;;;;14.13;100.00;101176.06;5079393;27;45727;-77
2023/03/21 02:42:29;;;;;;;;;7.00;7.00;;;;;14.13;100.00;101168.03;5079164;27;45384;-77
2023/03/21 02:45:06;;;;;;;;;8.67;6.67;;;;;14.00;100.00;101166.03;5079345;28;45303;-77
2023/03/21 02:47:58;;;;;;;;;8.00;7.00;;;;;14.04;100.00;101171.88;5079409;27;45331;-77
2023/03/21 02:50:31;;;;;;;;;8.33;7.00;;;;;14.07;100.00;101155.44;5070895;28;45410;-77
2023/03/21 02:52:59;;;;;;;;;6.67;6.00;;;;;14.02;100.00;101168.53;5076902;28;47187;-77
2023/03/21 02:55:27;;;;;;;;;7.33;7.33;;;;;13.98;100.00;101156.56;5079168;27;45394;-77
2023/03/21 02:57:54;;;;;;;;;7.67;7.67;;;;;13.93;100.00;101143.75;5079733;27;45323;-77
2023/03/21 03:00:26;;;;;;;;;8.00;7.00;;;;;13.95;100.00;101148.91;5077890;27;46097;-77
2023/03/21 03:02:53;;;;;;;;;6.00;6.00;;;;;13.95;100.00;101155.06;5077828;28;47528;-78
2023/03/21 03:05:25;;;;;;;;;7.00;7.00;;;;;13.89;100.00;101139.81;5078555;27;45421;-77
2023/03/21 03:08:30;;;;;;;;;10.67;7.00;;;;;13.95;100.00;101146.25;5078074;28;45349;-77
2023/03/21 03:11:08;;;;;;;;;7.67;7.67;;;;;13.96;100.00;101143.41;5074114;28;46318;-77
2023/03/21 03:14:02;;;;;;;;;8.33;8.33;;;;;13.99;100.00;101136.84;5077560;28;45389;-77
2023/03/21 03:16:39;;;;;;;;;7.00;7.00;;;;;14.06;100.00;101145.75;5077657;28;45666;-77
2023/03/21 03:19:10;;;;;;;;;8.00;7.00;;;;;14.01;100.00;101140.16;5079067;27;45264;-76
2023/03/21 03:21:45;;;;;;;;;9.00;8.00;;;;;13.92;100.00;101135.94;5077170;28;46346;-77
2023/03/21 03:24:23;;;;;;;;;10.67;10.67;;;;;13.98;100.00;101129.84;5077318;28;47360;-77
2023/03/21 03:26:59;;;;;;;;;11.00;9.00;;;;;14.09;100.00;101136.53;5078997;28;45295;-77
2023/03/21 03:29:27;;;;;;;;;8.67;7.33;;;;;13.99;100.00;101137.69;5076178;28;45388;-77
2023/03/21 03:32:00;;;;;;;;;11.00;9.33;;;;;13.96;100.00;101138.06;5065396;28;47427;-77
2023/03/21 03:34:33;;;;;;;;;9.00;9.00;;;;;13.89;100.00;101123.78;5078659;27;45512;-77
2023/03/21 03:37:03;;;;;;;;;9.00;9.00;;;;;13.94;100.00;101137.41;5078979;28;45347;-77
2023/03/21 03:39:52;;;;;;;;;10.00;8.33;;;;;13.93;100.00;101135.75;5077464;27;45487;-77
2023/03/21 03:42:30;;;;;;;;;8.67;8.00;;;;;13.98;100.00;101140.53;5077665;28;45447;-76
2023/03/21 03:44:56;;;;;;;;;9.67;9.67;;;;;13.92;100.00;101133.25;5077337;28;47234;-77
2023/03/21 03:47:32;;;;;;;;;11.00;11.00;;;;;14.06;100.00;101135.06;5077182;28;45519;-78
2023/03/21 03:50:16;;;;;;;;;12.67;11.67;;;;;14.00;100.00;101122.44;5078796;28;45312;-77
2023/03/21 03:52:49;;;;;;;;;13.67;12.00;;;;;13.99;100.00;101121.66;5078401;27;45418;-77
2023/03/21 03:55:17;;;;;;;;;12.67;12.00;;;;;13.95;100.00;101115.00;5076515;28;48146;-77
2023/03/21 03:57:43;;;;;;;;;10.00;9.00;;;;;13.73;100.00;101096.25;5077462;28;45598;-77
2023/03/21 04:00:11;;;;;;;;;11.00;8.33;;;;;13.95;100.00;101127.53;5077205;28;45327;-77
2023/03/21 04:02:38;;;;;;;;;10.00;10.00;;;;;13.92;100.00;101128.72;5081692;27;46632;-77
2023/03/21 04:05:04;;;;;;;;;12.67;11.00;;;;;13.86;100.00;101126.81;5079444;28;48271;-77
2023/03/21 04:07:30;;;;;;;;;12.00;12.00;;;;;13.75;100.00;101118.28;5080689;28;46793;-77
2023/03/21 04:09:56;;;;;;;;;10.33;10.33;;;;;13.88;100.00;101130.97;5080195;28;45260;-76
2023/03/21 04:12:22;;;;;;;;;12.67;12.67;;;;;13.86;100.00;101132.97;5082060;27;45341;-76
2023/03/21 04:14:48;;;;;;;;;8.33;8.00;;;;;13.82;100.00;101121.00;5081441;27;45295;-77
2023/03/21 04:17:14;;;;;;;;;13.00;11.33;;;;;13.79;100.00;101115.22;5080158;28;45743;-77
2023/03/21 04:19:40;;;;;;;;;10.00;10.00;;;;;13.87;100.00;101128.47;5081669;27;45460;-77
2023/03/21 04:22:06;;;;;;;;;11.67;11.67;;;;;13.86;100.00;101122.28;5081520;28;45530;-77
2023/03/21 04:24:32;;;;;;;;;14.33;13.00;;;;;13.87;100.00;101131.16;5081298;27;45429;-76
2023/03/21 04:27:00;;;;;;;;;13.00;12.33;;;;;13.90;100.00;101125.44;5080474;28;45323;-77
2023/03/21 04:29:28;;;;;;;;;11.33;11.33;;;;;13.89;100.00;101126.47;5079902;27;45210;-77
2023/03/21 04:31:54;;;;;;;;;8.00;8.00;;;;;13.97;100.00;101129.00;5081547;27;45326;-77
2023/03/21 04:34:22;;;;;;;;;13.33;12.00;;;;;13.97;100.00;101121.00;5079919;28;46042;-77
2023/03/21 04:36:49;;;;;;;;;13.00;13.00;;;;;13.93;100.00;101127.72;5081545;28;45432;-77
2023/03/21 04:39:15;;;;;;;;;14.33;13.00;;;;;14.01;100.00;101129.47;5081030;27;45515;-77
2023/03/21 04:41:43;;;;;;;;;10.00;10.00;;;;;13.99;100.00;101139.50;5079919;28;46293;-77
2023/03/21 04:44:09;;;;;;;;;11.67;11.33;;;;;14.05;100.00;101135.25;5081193;27;46257;-77
2023/03/21 04:46:35;;;;;;;;;11.00;11.00;;;;;13.97;100.00;101118.31;5081195;27;45356;-77
2023/03/21 04:49:01;;;;;;;;;11.00;11.00;;;;;14.06;100.00;101132.41;5081311;27;46338;-77
2023/03/21 04:51:26;;;;;;;;;14.00;14.00;;;;;14.10;100.00;101132.84;5080193;28;46521;-78
2023/03/21 04:53:56;;;;;;;;;10.67;10.67;;;;;14.09;100.00;101126.69;5079360;28;48075;-77
2023/03/21 04:56:23;;;;;;;;;11.33;11.33;;;;;14.07;100.00;101130.56;5081399;27;45361;-77
2023/03/21 04:58:48;;;;;;;;;10.00;8.00;;;;;14.08;100.00;101129.53;5080908;27;45260;-77
2023/03/21 05:01:18;;;;;;;;;12.00;12.00;;;;;14.07;100.00;101125.22;5080927;27;45346;-77
2023/03/21 05:03:44;;;;;;;;;10.33;10.00;;;;;14.04;100.00;101122.91;5080881;28;45379;-77
2023/03/21 05:06:09;;;;;;;;;8.00;8.00;;;;;13.93;100.00;101114.38;5080705;27;47894;-77
2023/03/21 05:08:35;;;;;;;;;13.00;11.67;;;;;13.99;100.00;101120.81;5080785;28;45460;-76
2023/03/21 05:11:01;;;;;;;;;12.67;11.67;;;;;13.95;100.00;101128.34;5079597;28;45950;-76
2023/03/21 05:13:27;;;;;;;;;12.33;12.33;;;;;13.93;100.00;101126.91;5080567;27;45405;-77
2023/03/21 05:15:52;;;;;;;;;11.00;11.00;;;;;13.91;100.00;101113.72;5080090;27;45301;-78
2023/03/21 05:18:23;;;;;;;;;9.33;9.33;;;;;13.96;100.00;101119.34;5080873;27;45400;-76
2023/03/21 05:20:52;;;;;;;;;12.33;12.33;;;;;13.96;100.00;101121.19;5080582;28;45288;-77
2023/03/21 05:23:18;;;;;;;;;8.67;8.67;;;;;13.96;100.00;101118.50;5080243;27;45350;-76
2023/03/21 05:25:43;;;;;;;;;11.00;11.00;;;;;14.00;100.00;101117.09;5080260;28;45401;-77
2023/03/21 05:28:09;;;;;;;;;11.00;10.00;;;;;14.01;100.00;101124.13;5080781;28;45384;-76
2023/03/21 05:30:34;;;;;;;;;11.33;10.67;;;;;13.94;100.00;101118.69;5080150;28;54173;-77
2023/03/21 05:33:00;;;;;;;;;12.00;10.67;;;;;13.94;100.00;101112.50;5080333;27;46342;-76
2023/03/21 05:35:25;;;;;;;;;7.00;6.67;;;;;13.96;100.00;101116.69;5080657;27;45288;-77
2023/03/21 05:37:52;;;;;;;;;11.00;10.00;;;;;13.90;100.00;101109.41;5080562;27;45307;-77
2023/03/21 05:40:18;;;;;;;;;10.33;10.33;;;;;13.82;100.00;101102.31;5080451;28;45335;-77
2023/03/21 05:42:46;;;;;;;;;10.00;10.00;;;;;13.86;100.00;101111.59;5063031;27;46521;-77
2023/03/21 05:45:12;;;;;;;;;10.33;10.33;;;;;13.82;100.00;101106.81;5070108;28;45355;-77
2023/03/21 05:47:37;;;;;;;;;11.00;10.33;;;;;13.78;100.00;101102.88;5080220;27;45345;-77
2023/03/21 05:50:03;;;;;;;;;13.00;9.00;;;;;13.82;100.00;101107.66;5079027;28;47389;-77
2023/03/21 05:52:29;;;;;;;;;9.33;9.33;;;;;13.84;100.00;101110.16;5079872;27;45681;-77
2023/03/21 05:54:54;;;;;;;;;8.33;8.33;;;;;13.86;100.00;101116.94;5078782;28;45339;-77
2023/03/21 05:57:20;;;;;;;;;9.00;9.00;;;;;13.87;100.00;101120.47;5078787;28;48072;-77
2023/03/21 05:59:45;;;;;;;;;12.67;11.00;;;;;13.85;100.00;101128.66;5080224;27;45389;-76
2023/03/21 06:02:11;;;;;;;;;13.67;10.00;;;;;13.87;100.00;101128.47;5080007;27;46543;-75
2023/03/21 06:04:36;;;;;;;;;12.00;12.00;;;;;13.88;100.00;101124.78;5078915;28;45320;-77
2023/03/21 06:07:02;;;;;;;;;10.00;10.00;;;;;13.85;100.00;101125.16;5078696;28;45383;-77
2023/03/21 06:09:28;;;;;;;;;11.33;11.00;;;;;13.80;100.00;101127.56;5079686;28;45272;-77
2023/03/21 06:11:55;;;;;;;;;14.00;12.33;;;;;13.80;100.00;101135.59;5078076;28;48456;-78
2023/03/21 06:14:21;;;;;;;;;10.67;10.67;;;;;13.75;100.00;101131.63;5070157;28;45324;-79
2023/03/21 06:16:47;;;;;;;;;11.33;11.33;;;;;13.73;100.00;101132.81;5071756;28;45405;-79
2023/03/21 06:19:12;;;;;;;;;10.67;10.67;;;;;13.66;100.00;101132.75;5069912;28;45425;-78
2023/03/21 06:21:38;;;;;;;;;14.33;13.67;;;;;13.66;100.00;101135.41;5078798;28;48283;-80
2023/03/21 06:24:03;;;;;;;;;14.33;12.00;;;;;13.58;100.00;101125.66;5079670;27;45376;-81
2023/03/21 06:26:29;;;;;;;;;13.00;11.00;;;;;13.57;100.00;101134.69;5076455;27;45496;-81
2023/03/21 06:28:54;;;;;;;;;10.67;10.67;;;;;13.57;100.00;101142.69;5063534;28;45912;-80
2023/03/21 06:31:21;;;;;;;;;15.00;13.00;;;;;13.49;100.00;101130.25;5091035;27;45343;-80
2023/03/21 06:33:47;;;;;;;;;11.00;11.00;;;;;13.50;100.00;101123.09;5079791;28;45415;-80
2023/03/21 06:36:13;;;;;;;;;12.33;12.33;;;;;13.56;100.00;101119.66;5080201;27;45350;-81
2023/03/21 06:38:39;;;;;;;;;12.67;11.33;;;;;13.48;100.00;101117.91;5080498;27;45280;-83
2023/03/21 06:41:05;;;;;;;;;13.33;11.67;;;;;13.48;100.00;101117.06;5082610;28;46126;-82
2023/03/21 06:43:30;;;;;;;;;12.67;11.33;;;;;13.48;100.00;101117.91;5079686;28;45817;-83
2023/03/21 06:45:56;;;;;;;;;11.33;11.33;;;;;13.39;100.00;101111.78;5074845;28;45342;-81
2023/03/21 06:48:22;;;;;;;;;11.33;11.33;;;;;13.37;100.00;101100.50;5075904;28;45457;-80
2023/03/21 06:50:48;;;;;;;;;14.67;13.00;;;;;13.34;100.00;101092.00;5086758;28;49162;-80
2023/03/21 06:53:13;;;;;;;;;12.33;12.33;;;;;13.36;100.00;101104.19;5078372;28;45437;-81
2023/03/21 06:55:39;;;;;;;;;13.33;12.00;;;;;13.39;100.00;101098.44;5084495;28;45323;-80
2023/03/21 06:58:04;;;;;;;;;15.00;13.67;;;;;13.35;100.00;101081.16;5081986;27;49372;-81
2023/03/21 07:00:30;;;;;;;;;14.00;14.00;;;;;13.45;100.00;101096.91;5074294;28;45492;-80
2023/03/21 07:02:55;;;;;;;;;13.67;13.67;;;;;13.43;100.00;101088.22;5076169;28;45504;-81
2023/03/21 07:05:20;;;;;;;;;12.00;12.00;;;;;13.43;100.00;101084.72;5077201;27;45376;-82
2023/03/21 07:07:46;;;;;;;;;14.00;13.33;;;;;13.36;100.00;101085.50;5080501;28;47912;-81
2023/03/21 07:10:11;;;;;;;;;13.33;13.33;;;;;13.42;100.00;101083.06;5060536;27;45347;-81
2023/03/21 07:12:36;;;;;;;;;15.00;13.67;;;;;13.51;100.00;101098.03;5060098;28;45261;-81
2023/03/21 07:15:03;;;;;;;;;15.67;14.67;;;;;13.56;100.00;101100.16;5078519;28;45350;-81
2023/03/21 07:17:29;;;;;;;;;14.00;12.00;;;;;13.45;100.00;101066.69;5079390;27;45363;-81
2023/03/21 07:19:54;;;;;;;;;16.33;13.00;;;;;13.60;100.00;101104.09;5078926;28;46255;-80
2023/03/21 07:22:20;;;;;;;;;12.67;12.67;;;;;13.61;100.00;101087.06;5078952;27;45270;-79
2023/03/21 07:24:48;;;;;;;;;14.67;13.33;;;;;13.62;100.00;101078.03;5077428;28;45344;-79
2023/03/21 07:27:15;;;;;;;;;13.00;13.00;;;;;13.71;100.00;101084.91;5079203;27;45389;-79
2023/03/21 07:29:40;;;;;;;;;13.00;12.67;;;;;13.75;100.00;101088.06;5077297;28;48057;-79
2023/03/21 07:32:06;;;;;;;;;13.67;13.67;;;;;13.75;100.00;101086.22;5079053;27;45540;-79
2023/03/21 07:34:32;;;;;;;;;10.00;10.00;;;;;13.80;100.00;101082.97;5078819;28;45247;-79
2023/03/21 07:36:59;;;;;;;;;16.67;14.00;;;;;13.89;100.00;101073.03;5077502;28;46145;-76
2023/03/21 07:39:26;;;;;;;;;31.67;31.00;;;;;13.92;100.00;101077.16;5079828;27;46283;-79
2023/03/21 07:41:54;;;;;;;;;48.00;39.50;;;;;13.91;100.00;101068.31;5081123;28;45582;-79
2023/03/21 07:44:20;;;;;;;;;60.50;48.25;;;;;13.99;100.00;101075.38;5080776;27;45347;-78
2023/03/21 07:46:46;;;;;;;;;69.25;56.75;;;;;14.04;100.00;101081.00;5081906;27;45571;-78
2023/03/21 07:49:12;;;;;;;;;66.50;53.25;;;;;14.05;100.00;101074.63;5080057;27;60510;-78
2023/03/21 07:51:37;;;;;;;;;58.75;47.50;;;;;14.21;100.00;101076.22;5081087;27;45316;-77
2023/03/21 07:54:02;;;;;;;;;46.00;37.50;;;;;14.27;100.00;101062.09;5082208;27;45149;-77
2023/03/21 07:56:28;;;;;;;;;39.00;33.00;;;;;14.32;100.00;101074.91;5082125;28;45331;-78
2023/03/21 07:58:53;;;;;;;;;53.75;45.00;;;;;14.35;100.00;101071.84;5076673;28;47248;-77
2023/03/21 08:01:18;;;;;;;;;25.00;24.00;;;;;14.29;100.00;101069.94;5066654;28;45297;-77
2023/03/21 08:03:44;;;;;;;;;46.50;40.00;;;;;14.36;100.00;101078.84;5073082;28;45184;-77
2023/03/21 08:06:09;;;;;;;;;39.25;33.50;;;;;14.36;100.00;101060.13;5097682;27;47233;-77
2023/03/21 08:08:36;;;;;;;;;44.25;37.50;;;;;14.39;100.00;101073.09;5081763;27;45412;-77
2023/03/21 08:11:03;;;;;;;;;49.75;41.50;;;;;14.51;100.00;101068.06;5081757;27;45525;-77
2023/03/21 08:13:28;;;;;;;;;35.00;32.75;;;;;14.60;100.00;101059.91;5080675;28;45447;-76
2023/03/21 08:15:53;;;;;;;;;35.33;32.67;;;;;14.66;100.00;101080.53;5080107;27;45711;-78
2023/03/21 08:18:19;;;;;;;;;50.25;42.75;;;;;14.69;100.00;101056.06;5080522;27;48325;-78
2023/03/21 08:20:44;;;;;;;;;39.67;34.00;;;;;14.84;100.00;101049.81;5081752;27;45500;-78
2023/03/21 08:23:10;;;;;;;;;17.33;16.33;;;;;14.85;100.00;101038.13;5081595;27;45410;-77
2023/03/21 08:25:35;;;;;;;;;18.67;18.67;;;;;15.01;100.00;101075.28;5080197;28;48905;-80
2023/03/21 08:28:01;;;;;;;;;14.67;14.00;;;;;15.10;100.00;101085.81;5081288;27;45340;-79
2023/03/21 08:30:28;;;;;;;;;19.33;18.00;;;;;15.17;100.00;101065.28;5080230;28;45404;-78
2023/03/21 08:33:00;;;;;;;;;19.67;17.33;;;;;15.22;100.00;101059.31;5081525;27;45268;-76
2023/03/21 08:35:26;;;;;;;;;15.00;13.33;;;;;15.25;100.00;101075.84;5080982;27;45315;-78
2023/03/21 08:37:52;;;;;;;;;20.67;18.67;;;;;15.33;100.00;101080.22;5081902;27;45462;-77
2023/03/21 08:40:19;;;;;;;;;15.00;13.33;;;;;15.38;100.00;101106.38;5080374;28;45358;-78
2023/03/21 08:42:45;;;;;;;;;16.00;15.67;;;;;15.29;100.00;101086.16;5080335;28;45294;-76
2023/03/21 08:45:13;;;;;;;;;14.33;13.67;;;;;15.29;100.00;101110.25;5079813;27;45677;-79
2023/03/21 08:47:39;;;;;;;;;14.00;14.00;;;;;15.23;100.00;101103.81;5071240;28;45666;-78
2023/03/21 08:50:07;;;;;;;;;15.67;13.67;;;;;15.19;100.00;101108.75;5075626;27;45253;-78
2023/03/21 08:52:32;;;;;;;;;14.67;14.00;;;;;15.21;100.00;101111.22;5081346;27;45382;-77
2023/03/21 08:55:01;;;;;;;;;13.00;12.00;;;;;15.20;100.00;101097.00;5080640;27;45322;-79
2023/03/21 08:57:27;;;;;;;;;14.00;13.00;;;;;15.16;100.00;101090.41;5081273;27;45312;-78
2023/03/21 08:59:53;;;;;;;;;17.00;14.67;;;;;15.24;100.00;101090.22;5080492;27;45314;-79
2023/03/21 09:02:18;;;;;;;;;16.00;15.00;;;;;15.11;100.00;101096.34;5079792;28;45433;-78
2023/03/21 09:04:43;;;;;;;;;13.33;12.33;;;;;15.09;100.00;101094.88;5080962;28;48215;-78
2023/03/21 09:07:11;;;;;;;;;13.33;11.67;;;;;15.22;100.00;101092.28;5081059;28;45412;-78
2023/03/21 09:09:37;;;;;;;;;14.67;14.33;;;;;15.39;100.00;101094.66;5079998;27;45341;-78
2023/03/21 09:12:03;;;;;;;;;17.00;16.33;;;;;15.36;100.00;101087.00;5081331;28;45346;-78
2023/03/21 09:14:28;;;;;;;;;13.00;13.00;;;;;15.51;100.00;101074.31;5079418;28;46086;-78
2023/03/21 09:16:53;;;;;;;;;18.00;14.67;;;;;15.56;100.00;101071.03;5080824;27;45490;-79
2023/03/21 09:19:19;;;;;;;;;12.33;12.33;;;;;15.65;100.00;101087.75;5080344;28;50068;-79
2023/03/21 09:21:45;;;;;;;;;14.67;14.00;;;;;15.80;100.00;101098.31;5080962;27;45404;-78
2023/03/21 09:24:11;;;;;;;;;12.67;12.00;;;;;15.95;100.00;101092.00;5079109;28;46216;-78
2023/03/21 09:26:37;;;;;;;;;13.00;13.00;;;;;16.02;100.00;101100.91;5079115;27;47168;-78
2023/03/21 09:29:04;;;;;;;;;15.67;13.33;;;;;16.20;100.00;101105.72;5079187;28;45439;-78
2023/03/21 09:31:30;;;;;;;;;12.33;12.33;;;;;16.29;100.00;101090.25;5080393;27;45393;-79
2023/03/21 09:33:57;;;;;;;;;13.33;13.33;;;;;16.36;100.00;101106.34;5079105;28;46741;-79
2023/03/21 09:36:23;;;;;;;;;13.00;12.67;;;;;16.41;100.00;101099.31;5079636;28;45363;-79
2023/03/21 09:38:49;;;;;;;;;18.67;14.00;;;;;16.53;100.00;101098.75;5080308;27;45244;-80
2023/03/21 09:41:21;;;;;;;;;15.67;15.33;;;;;16.59;100.00;101105.97;5080064;27;45239;-79
2023/03/21 09:43:49;;;;;;;;;16.00;15.00;;;;;16.62;100.00;101092.13;5080612;27;45331;-79
2023/03/21 09:46:36;;;;;;;;;14.00;13.00;;;;;16.70;100.00;101101.81;5078889;28;46994;-79
2023/03/21 09:49:08;;;;;;;;;13.67;13.00;;;;;16.90;100.00;101107.19;5080145;27;45356;-79
2023/03/21 09:51:40;;;;;;;;;14.00;13.00;;;;;17.09;100.00;101112.78;5080475;28;45412;-79
2023/03/21 09:54:36;;;;;;;;;15.00;14.33;;;;;17.16;100.00;101105.53;5078512;28;45531;-79
2023/03/21 09:57:40;;;;;;;;;15.67;14.33;;;;;17.21;98.48;101112.94;5077527;28;48283;-79
2023/03/21 10:00:15;;;;;;;;;13.67;11.00;;;;;17.21;99.73;101102.22;5078846;28;45375;-79
2023/03/21 10:02:46;;;;;;;;;13.00;13.00;;;;;17.33;100.00;101113.13;5079992;27;45369;-79
2023/03/21 10:05:22;;;;;;;;;9.33;9.33;;;;;17.40;98.38;101113.13;5079964;27;45421;-79
2023/03/21 10:07:53;;;;;;;;;12.00;11.00;;;;;17.44;98.27;101097.41;5080144;27;45359;-79
2023/03/21 10:10:25;;;;;;;;;9.33;9.33;;;;;17.61;99.06;101106.66;5078340;28;45332;-79
2023/03/21 10:12:53;;;;;;;;;10.00;9.00;;;;;17.75;97.81;101095.84;5078968;28;45364;-79
2023/03/21 10:15:21;;;;;;;;;13.67;11.00;;;;;17.88;97.04;101103.03;5079873;27;45460;-79
2023/03/21 10:17:59;;;;;;;;;9.67;9.67;;;;;17.97;95.36;101082.91;5078505;28;47192;-79
2023/03/21 10:20:33;;;;;;;;;12.00;11.00;;;;;18.02;96.61;101090.34;5079521;27;45400;-78
2023/03/21 10:23:03;;;;;;;;;11.33;8.33;;;;;18.10;95.60;101087.41;5080138;27;45355;-78
2023/03/21 10:25:33;;;;;;;;;9.00;8.33;;;;;18.12;94.99;101093.41;5079595;28;45505;-79
2023/03/21 10:28:05;;;;;;;;;10.00;10.00;;;;;18.16;92.72;101085.72;5078355;27;46330;-79
2023/03/21 10:30:38;;;;;;;;;11.67;11.67;;;;;18.14;93.23;101077.06;5079649;28;45441;-78
2023/03/21 10:33:08;;;;;;;;;6.00;6.00;;;;;18.22;92.81;101089.41;5079737;27;45465;-78
2023/03/21 10:35:36;;;;;;;;;12.00;12.00;;;;;18.26;93.18;101090.66;5079383;27;45620;-79
2023/03/21 10:38:04;;;;;;;;;12.33;11.00;;;;;18.37;91.32;101099.88;5079279;27;45452;-78
2023/03/21 10:40:29;;;;;;;;;12.33;11.00;;;;;18.36;92.66;101106.28;5079303;28;45353;-79
2023/03/21 10:42:56;;;;;;;;;10.00;10.00;;;;;18.45;91.77;101093.41;5078367;28;45331;-78
2023/03/21 10:45:22;;;;;;;;;11.00;11.00;;;;;18.53;91.56;101085.88;5079610;27;45244;-78
2023/03/21 10:47:48;;;;;;;;;12.00;11.67;;;;;18.62;91.66;101091.81;5078145;28;47293;-78
2023/03/21 10:50:19;;;;;;;;;10.67;10.00;;;;;18.67;91.79;101093.84;5079128;27;45361;-78
2023/03/21 10:52:50;;;;;;;;;12.67;11.67;;;;;18.71;91.07;101091.53;5079444;27;45468;-79
2023/03/21 10:55:31;;;;;;;;;13.00;13.00;;;;;18.68;89.59;101101.69;5078722;27;45352;-78
2023/03/21 10:58:09;;;;;;;;;13.67;13.67;;;;;18.69;90.30;101089.06;5078073;28;47236;-77
2023/03/21 11:00:40;;;;;;;;;11.00;11.00;;;;;18.70;91.60;101088.03;5077839;28;45343;-77
2023/03/21 11:03:06;;;;;;;;;7.67;7.67;;;;;18.92;91.19;101093.00;5079593;28;45386;-79
2023/03/21 11:05:38;;;;;;;;;10.00;10.00;;;;;19.08;91.61;101090.81;5078918;27;45611;-78
2023/03/21 11:08:09;;;;;;;;;11.00;9.67;;;;;19.16;91.46;101096.72;5078681;27;45414;-79
2023/03/21 11:10:47;;;;;;;;;12.33;12.00;;;;;19.11;89.41;101091.19;5077619;28;45385;-77
2023/03/21 11:13:32;;;;;;;;;11.67;11.67;;;;;19.01;89.24;101096.25;5079313;27;45335;-77
2023/03/21 11:16:07;;;;;;;;;11.00;11.00;;;;;19.02;89.74;101092.50;5082786;27;45281;-78
2023/03/21 11:18:39;;;;;;;;;14.00;13.00;;;;;19.10;88.49;101096.81;5082689;27;45369;-77